Strona główna
METAR-TAF:

METAR-TAF

Lotnisko :

Shawbury, Anglia

Szerokość geograficzna: 52-48N, Długość geograficzna: 002-40W, wysokość: 76 m

Aktualna obserwacja pogody

Raport powstał 1 godzina i 2 minut temu, godzina 04:50 UTC
Wiatr 5 kt od wschód
Temperatura 10°C
Wilgotność 93%
Ciśnienie 1035 hPa
Widzialność 10 km lub więcej

METAR: EGOS 280450Z AUTO 08005KT 9999 NCD 10/09 Q1035

czas: 06:52 (05:52 UTC)

Prognoza

Raport powstał 16 godziny i 11 minut temu, godzina 13:41 UTC
Prognoza ważna od 27 godzina 15 UTC do 27 godzina 19 UTC
Wiatr 5 kt od północ
Widzialność 10 km lub więcej
Brak chmur poniżej 1500 m i brak chmur cumulonimbus

TAF: EGOS 271341Z 2715/2719 35005KT CAVOK

Obserwacja i prognoza pogody dla ponad 4000 lotnisk (raport METAR i TAF).

Dostępne stacje oznaczono żółtymi i czerwonymi punktami na mapie.

Najedź kursorem aby zobaczyć nazwę stacji.

Kliknij aby zobaczyć obserwacje i prognozy pogody.

Aby zmienić mapę: kliknij na zielony przycisk z czarnym krzyżykiem, aby powiększyć; na zielony przycisk z myślnikiem, aby pomniejszyć; na zielone strzałki, aby przejść do map sąsiednich.


METAR-TAF: